Time;durP1;ratioP1;P1;durP2;ratioP2;P2;SDS_P1;SDS_P2;PMS_P1;PMS_P2;Temp;Humidity;BMP_temperature;BMP_pressure;BME280_temperature;BME280_humidity;BME280_pressure;Samples;Min_cycle;Max_cycle;Signal;HPM_P1;HPM_P2
2022/10/06 00:01:27;;;;;;;;;;;;;;;21.84;61.89;102185.97;7405243;19;1692;-60
2022/10/06 00:03:56;;;;;;;;;;;;;;;21.84;61.82;102172.50;7403958;19;2244;-61
2022/10/06 00:06:26;;;;;;;;;;;;;;;21.87;62.02;102184.91;7406940;19;1798;-61
2022/10/06 00:08:55;;;;;;;;;;;;;;;21.84;61.68;102176.09;7408819;19;1561;-61
2022/10/06 00:11:23;;;;;;;;;;;;;;;21.81;61.84;102176.31;7406811;19;1431;-61
2022/10/06 00:13:52;;;;;;;;;;;;;;;21.89;61.68;102177.56;7405495;19;1862;-61
2022/10/06 00:16:22;;;;;;;;;;;;;;;21.82;61.64;102167.25;7405753;19;1323;-61
2022/10/06 00:18:51;;;;;;;;;;;;;;;21.80;61.75;102163.81;7405616;19;1462;-62
2022/10/06 00:21:19;;;;;;;;;;;;;;;21.79;61.90;102167.50;7406348;19;1672;-61
2022/10/06 00:23:50;;;;;;;;;;;;;;;21.79;61.59;102151.34;7404392;19;1326;-61
2022/10/06 00:26:18;;;;;;;;;;;;;;;21.80;61.77;102163.81;7405718;19;1518;-61
2022/10/06 00:28:48;;;;;;;;;;;;;;;21.78;61.77;102157.69;7405863;19;1703;-61
2022/10/06 00:31:18;;;;;;;;;;;;;;;21.79;61.54;102153.19;7405650;19;1275;-63
2022/10/06 00:33:46;;;;;;;;;;;;;;;21.78;61.85;102155.00;7404015;19;1846;-61
2022/10/06 00:36:15;;;;;;;;;;;;;;;21.78;61.57;102149.59;7404692;19;1505;-61
2022/10/06 00:38:43;;;;;;;;;;;;;;;21.77;61.67;102155.13;7406086;19;1264;-61
2022/10/06 00:41:15;;;;;;;;;;;;;;;21.77;61.64;102145.22;7402627;19;1426;-61
2022/10/06 00:43:45;;;;;;;;;;;;;;;21.76;61.65;102151.56;7405382;19;1248;-61
2022/10/06 00:46:16;;;;;;;;;;;;;;;21.75;61.46;102140.94;7405813;19;1275;-61
2022/10/06 00:48:45;;;;;;;;;;;;;;;21.76;61.68;102146.19;7406091;19;1459;-61
2022/10/06 00:51:14;;;;;;;;;;;;;;;21.76;61.52;102142.63;7405972;19;1553;-61
2022/10/06 00:53:43;;;;;;;;;;;;;;;21.82;61.39;102156.47;7403839;19;1846;-61
2022/10/06 00:56:12;;;;;;;;;;;;;;;21.77;61.27;102149.75;7405596;19;1443;-61
2022/10/06 00:58:43;;;;;;;;;;;;;;;21.75;61.47;102139.09;7406293;19;1442;-61
2022/10/06 01:01:13;;;;;;;;;;;;;;;21.72;61.35;102130.41;7405270;19;1568;-61
2022/10/06 01:03:43;;;;;;;;;;;;;;;21.77;61.58;102137.13;7405783;19;1562;-61
2022/10/06 01:06:12;;;;;;;;;;;;;;;21.76;61.42;102140.78;7403416;19;1600;-61
2022/10/06 01:08:40;;;;;;;;;;;;;;;21.74;61.35;102137.38;7405813;19;1359;-62
2022/10/06 01:11:12;;;;;;;;;;;;;;;21.73;61.28;102119.50;7405067;19;1527;-61
2022/10/06 01:13:42;;;;;;;;;;;;;;;21.74;61.34;102131.97;7403312;19;1854;-61
2022/10/06 01:16:17;;;;;;;;;;;;;;;21.74;61.42;102126.59;7404456;19;1641;-62
2022/10/06 01:18:48;;;;;;;;;;;;;;;21.71;61.44;102132.25;7404980;19;1297;-61
2022/10/06 01:21:20;;;;;;;;;;;;;;;21.70;61.31;102114.34;7403568;19;1236;-61
2022/10/06 01:23:51;;;;;;;;;;;;;;;21.71;61.15;102124.16;7404386;19;1291;-61
2022/10/06 01:26:22;;;;;;;;;;;;;;;21.73;61.36;102127.59;7404844;19;1256;-61
2022/10/06 01:28:50;;;;;;;;;;;;;;;21.73;61.16;102108.75;7403971;19;1220;-67
2022/10/06 01:31:19;;;;;;;;;;;;;;;21.68;61.37;102116.31;7404924;19;1303;-67
2022/10/06 01:33:52;;;;;;;;;;;;;;;21.71;61.24;102126.84;7402002;19;1863;-67
2022/10/06 01:36:20;;;;;;;;;;;;;;;21.69;61.03;102115.34;7402287;19;1683;-61
2022/10/06 01:38:51;;;;;;;;;;;;;;;21.69;61.16;102118.03;7404981;19;1450;-61
2022/10/06 01:41:21;;;;;;;;;;;;;;;21.71;61.25;102116.09;7403958;19;1426;-61
2022/10/06 01:43:49;;;;;;;;;;;;;;;21.66;61.25;102112.88;7404764;19;1458;-61
2022/10/06 01:46:18;;;;;;;;;;;;;;;21.64;60.93;102113.00;7405164;19;1648;-61
2022/10/06 01:48:46;;;;;;;;;;;;;;;21.67;61.16;102111.91;7401340;19;1730;-61
2022/10/06 01:51:15;;;;;;;;;;;;;;;21.69;61.22;102109.97;7400410;19;1537;-62
2022/10/06 01:53:44;;;;;;;;;;;;;;;21.64;61.14;102107.63;7403418;19;1889;-62
2022/10/06 01:56:15;;;;;;;;;;;;;;;21.66;61.11;102091.34;7401629;19;1967;-62
2022/10/06 01:58:43;;;;;;;;;;;;;;;21.64;60.79;102104.91;7403457;19;1331;-62
2022/10/06 02:01:12;;;;;;;;;;;;;;;21.65;60.97;102101.28;7396498;19;1477;-62
2022/10/06 02:03:41;;;;;;;;;;;;;;;21.65;60.85;102100.41;7404122;19;1514;-62
2022/10/06 02:06:10;;;;;;;;;;;;;;;21.65;60.94;102106.66;7402985;19;1429;-62
2022/10/06 02:08:38;;;;;;;;;;;;;;;21.65;60.94;102095.03;7402888;19;1344;-62
2022/10/06 02:11:08;;;;;;;;;;;;;;;21.64;60.75;102082.53;7402560;19;1470;-63
2022/10/06 02:13:39;;;;;;;;;;;;;;;21.67;60.94;102103.00;7401638;19;1859;-62
2022/10/06 02:16:09;;;;;;;;;;;;;;;21.63;60.85;102094.28;7399859;19;1592;-62
2022/10/06 02:18:38;;;;;;;;;;;;;;;21.65;60.73;102100.41;7401461;19;1625;-62
2022/10/06 02:21:06;;;;;;;;;;;;;;;21.64;60.80;102101.38;7402028;19;1637;-62
2022/10/06 02:23:34;;;;;;;;;;;;;;;21.62;60.89;102096.09;7401542;19;1462;-62
2022/10/06 02:26:04;;;;;;;;;;;;;;;21.63;60.75;102102.38;7403456;19;1625;-62
2022/10/06 02:28:33;;;;;;;;;;;;;;;21.60;60.75;102097.22;7403815;19;1450;-62
2022/10/06 02:31:06;;;;;;;;;;;;;;;21.62;60.93;102108.72;7402818;19;1667;-62
2022/10/06 02:33:34;;;;;;;;;;;;;;;21.65;60.67;102108.50;7398389;19;1853;-62
2022/10/06 02:36:03;;;;;;;;;;;;;;;21.60;60.63;102107.97;7401674;19;1529;-63
2022/10/06 02:38:32;;;;;;;;;;;;;;;21.56;60.56;102091.22;7401362;19;1631;-62
2022/10/06 02:41:00;;;;;;;;;;;;;;;21.61;60.80;102102.50;7402504;19;1714;-62
2022/10/06 02:43:30;;;;;;;;;;;;;;;21.60;60.76;102100.75;7400875;19;1595;-62
2022/10/06 02:46:00;;;;;;;;;;;;;;;21.58;60.65;102094.63;7401707;19;1470;-62
2022/10/06 02:48:32;;;;;;;;;;;;;;;21.59;60.73;102107.13;7398619;19;1589;-62
2022/10/06 02:51:00;;;;;;;;;;;;;;;21.57;60.80;102108.25;7402636;19;1528;-62
2022/10/06 02:53:29;;;;;;;;;;;;;;;21.60;60.56;102102.59;7401030;19;1877;-62
2022/10/06 02:56:01;;;;;;;;;;;;;;;21.64;60.56;102121.06;7402675;19;1900;-62
2022/10/06 02:58:31;;;;;;;;;;;;;;;21.60;60.52;102103.44;7402182;19;1636;-62
2022/10/06 03:01:02;;;;;;;;;;;;;;;21.60;60.64;102113.38;7407386;19;1730;-62
2022/10/06 03:03:34;;;;;;;;;;;;;;;21.59;60.50;102117.06;7404396;19;1687;-62
2022/10/06 03:06:02;;;;;;;;;;;;;;;21.56;60.63;102111.91;7405489;19;1680;-62
2022/10/06 03:08:31;;;;;;;;;;;;;;;21.59;60.50;102125.13;7407643;19;1501;-62
2022/10/06 03:11:02;;;;;;;;;;;;;;;21.58;60.47;102121.56;7406494;19;1858;-62
2022/10/06 03:13:31;;;;;;;;;;;;;;;21.56;60.42;102115.44;7403051;19;1847;-62
2022/10/06 03:16:00;;;;;;;;;;;;;;;21.57;60.58;102116.31;7402638;19;1474;-62
2022/10/06 03:18:29;;;;;;;;;;;;;;;21.55;60.64;102123.66;7403933;19;1494;-62
2022/10/06 03:21:03;;;;;;;;;;;;;;;21.57;60.54;102124.38;7409468;19;1458;-62
2022/10/06 03:23:32;;;;;;;;;;;;;;;21.55;60.57;102134.41;7408618;19;1458;-62
2022/10/06 03:26:00;;;;;;;;;;;;;;;21.53;60.32;102104.06;7406572;19;1831;-62
2022/10/06 03:28:29;;;;;;;;;;;;;;;21.55;60.32;102107.50;7405362;19;1430;-62
2022/10/06 03:31:01;;;;;;;;;;;;;;;21.54;60.46;102125.47;7408423;19;1524;-62
2022/10/06 03:33:30;;;;;;;;;;;;;;;21.53;60.52;102113.00;7407556;19;1862;-62
2022/10/06 03:36:05;;;;;;;;;;;;;;;21.53;60.52;102120.22;7408350;19;1454;-62
2022/10/06 03:38:34;;;;;;;;;;;;;;;21.53;60.45;102114.84;7409391;19;1458;-62
2022/10/06 03:41:06;;;;;;;;;;;;;;;21.50;60.35;102126.69;7406198;19;1604;-62
2022/10/06 03:43:35;;;;;;;;;;;;;;;21.52;60.20;102121.19;7404137;19;1842;-62
2022/10/06 03:46:04;;;;;;;;;;;;;;;21.52;60.25;102121.19;7404926;19;1458;-62
2022/10/06 03:48:33;;;;;;;;;;;;;;;21.52;60.45;102140.03;7407540;19;1533;-62
2022/10/06 03:51:02;;;;;;;;;;;;;;;21.54;60.27;102124.63;7406560;19;1439;-62
2022/10/06 03:53:33;;;;;;;;;;;;;;;21.60;59.92;102127.69;7404202;19;1868;-62
2022/10/06 03:56:02;;;;;;;;;;;;;;;21.55;60.21;102132.59;7401794;19;1584;-62
2022/10/06 03:58:31;;;;;;;;;;;;;;;21.56;60.37;102120.81;7404772;19;1806;-62
2022/10/06 04:01:00;;;;;;;;;;;;;;;21.57;60.27;102119.00;7404889;19;1613;-62
2022/10/06 04:03:29;;;;;;;;;;;;;;;21.52;60.32;102131.94;7403113;19;1728;-62
2022/10/06 04:05:57;;;;;;;;;;;;;;;21.54;60.24;102120.09;7408585;19;1474;-64
2022/10/06 04:08:27;;;;;;;;;;;;;;;21.58;60.21;102136.84;7407245;19;1683;-70
2022/10/06 04:11:05;;;;;;;;;;;;;;;21.62;60.10;102138.34;7403543;19;1633;-67
2022/10/06 04:13:34;;;;;;;;;;;;;;;21.56;60.15;102123.50;7403274;19;1852;-67
2022/10/06 04:16:10;;;;;;;;;;;;;;;21.59;60.38;102128.66;7403120;19;1520;-67
2022/10/06 04:18:39;;;;;;;;;;;;;;;21.60;60.43;102124.13;7407656;19;1537;-69
2022/10/06 04:21:08;;;;;;;;;;;;;;;21.61;60.49;102115.09;7405321;19;1704;-67
2022/10/06 04:23:37;;;;;;;;;;;;;;;21.59;57.74;102114.38;7400376;19;1659;-70
2022/10/06 04:26:11;;;;;;;;;;;;;;;21.63;59.53;102119.38;7404544;19;1666;-70
2022/10/06 04:28:39;;;;;;;;;;;;;;;21.73;59.78;102116.81;7402507;19;1515;-69
2022/10/06 04:31:09;;;;;;;;;;;;;;;21.69;60.21;102131.50;7402693;19;1271;-68
2022/10/06 04:33:37;;;;;;;;;;;;;;;21.75;60.20;102122.09;7402355;19;1842;-68
2022/10/06 04:36:06;;;;;;;;;;;;;;;21.70;59.78;102119.75;7406136;19;1576;-70
2022/10/06 04:38:38;;;;;;;;;;;;;;;21.76;59.79;102099.56;7406209;19;1372;-69
2022/10/06 04:41:11;;;;;;;;;;;;;;;21.61;55.81;102117.78;7399486;19;1534;-70
2022/10/06 04:43:39;;;;;;;;;;;;;;;21.68;56.21;102110.06;7401433;19;1302;-69
2022/10/06 04:46:08;;;;;;;;;;;;;;;21.76;55.52;102124.63;7401968;19;1426;-70
2022/10/06 04:48:36;;;;;;;;;;;;;;;21.82;57.68;102113.38;7404045;19;1538;-69
2022/10/06 04:51:06;;;;;;;;;;;;;;;21.91;57.95;102116.34;7403808;19;1307;-65
2022/10/06 04:53:35;;;;;;;;;;;;;;;21.89;58.10;102111.09;7400401;19;1868;-69
2022/10/06 04:56:05;;;;;;;;;;;;;;;21.87;58.40;102114.88;7402890;19;1371;-70
2022/10/06 04:58:36;;;;;;;;;;;;;;;22.04;58.35;102108.97;7400961;19;1581;-69
2022/10/06 05:01:05;;;;;;;;;;;;;;;22.41;57.16;102104.19;7401147;19;1330;-68
2022/10/06 05:03:34;;;;;;;;;;;;;;;22.13;58.26;102105.56;7402121;19;1487;-63
2022/10/06 05:06:06;;;;;;;;;;;;;;;21.88;58.79;102116.56;7403621;19;1758;-70
2022/10/06 05:08:34;;;;;;;;;;;;;;;21.84;59.04;102130.31;7405137;19;1478;-73
2022/10/06 05:11:03;;;;;;;;;;;;;;;21.97;58.71;102115.88;7400912;19;1644;-70
2022/10/06 05:13:31;;;;;;;;;;;;;;;21.90;59.00;102114.63;7400295;19;1842;-67
2022/10/06 05:16:03;;;;;;;;;;;;;;;21.84;59.75;102127.63;7402857;19;1597;-71
2022/10/06 05:18:33;;;;;;;;;;;;;;;21.90;59.58;102128.09;7401647;19;1251;-71
2022/10/06 05:21:03;;;;;;;;;;;;;;;21.87;59.62;102125.66;7404388;19;1474;-72
2022/10/06 05:23:32;;;;;;;;;;;;;;;21.90;59.48;102125.41;7401273;19;1534;-70
2022/10/06 05:26:01;;;;;;;;;;;;;;;21.93;59.52;102127.84;7403129;19;1247;-69
2022/10/06 05:28:30;;;;;;;;;;;;;;;22.04;59.53;102134.09;7402904;19;1542;-72
2022/10/06 05:31:02;;;;;;;;;;;;;;;22.10;59.38;102123.81;7402784;19;1466;-69
2022/10/06 05:33:31;;;;;;;;;;;;;;;22.20;58.64;102132.84;7399550;19;1859;-71
2022/10/06 05:36:01;;;;;;;;;;;;;;;22.27;58.80;102127.88;7404645;19;1537;-67
2022/10/06 05:38:30;;;;;;;;;;;;;;;22.27;59.18;102135.97;7399757;19;1490;-71
2022/10/06 05:41:06;;;;;;;;;;;;;;;22.24;59.96;102128.97;7403173;19;1534;-71
2022/10/06 05:43:34;;;;;;;;;;;;;;;22.27;59.00;102144.06;7403724;19;1545;-71
2022/10/06 05:46:06;;;;;;;;;;;;;;;22.39;58.60;102149.28;7402097;19;1537;-72
2022/10/06 05:48:35;;;;;;;;;;;;;;;22.47;59.16;102147.81;7402578;19;1446;-71
2022/10/06 05:51:04;;;;;;;;;;;;;;;22.43;59.06;102145.38;7403118;19;1461;-69
2022/10/06 05:53:34;;;;;;;;;;;;;;;22.50;59.19;102137.66;7402810;19;1847;-69
2022/10/06 05:56:06;;;;;;;;;;;;;;;22.44;56.41;102151.59;7403992;19;1659;-70
2022/10/06 05:58:35;;;;;;;;;;;;;;;22.40;52.35;102139.34;7404568;19;1558;-70
2022/10/06 06:01:11;;;;;;;;;;;;;;;22.24;56.26;102147.81;7402429;19;1592;-69
2022/10/06 06:03:40;;;;;;;;;;;;;;;22.27;56.04;102134.13;7403781;19;1707;-70
2022/10/06 06:06:16;;;;;;;;;;;;;;;22.28;57.05;102140.34;7403822;19;1644;-70
2022/10/06 06:08:45;;;;;;;;;;;;;;;22.30;56.99;102141.09;7402969;19;1640;-68
2022/10/06 06:11:13;;;;;;;;;;;;;;;22.40;56.50;102144.75;7403150;19;1533;-70
2022/10/06 06:13:42;;;;;;;;;;;;;;;22.31;55.05;102140.97;7403038;19;1863;-70
2022/10/06 06:16:12;;;;;;;;;;;;;;;22.19;52.38;102142.78;7402477;19;1447;-69
2022/10/06 06:18:41;;;;;;;;;;;;;;;22.31;55.23;102142.81;7400246;19;1631;-71
2022/10/06 06:21:10;;;;;;;;;;;;;;;22.29;51.92;102139.41;7411166;19;1750;-70
2022/10/06 06:23:40;;;;;;;;;;;;;;;22.33;52.42;102144.41;7403560;19;1393;-67
2022/10/06 06:26:10;;;;;;;;;;;;;;;22.33;52.16;102146.25;7399603;19;1612;-70
2022/10/06 06:28:39;;;;;;;;;;;;;;;22.36;51.78;102149.56;7400331;19;1627;-70
2022/10/06 06:31:08;;;;;;;;;;;;;;;22.43;51.52;102139.13;7400652;19;1623;-71
2022/10/06 06:33:40;;;;;;;;;;;;;;;22.49;52.98;102148.56;7403062;19;1854;-69
2022/10/06 06:36:14;;;;;;;;;;;;;;;22.49;52.29;102165.56;7401968;19;1356;-69
2022/10/06 06:38:42;;;;;;;;;;;;;;;22.49;52.51;102152.09;7403246;19;1795;-69
2022/10/06 06:41:17;;;;;;;;;;;;;;;22.49;52.22;102144.00;7401301;19;1687;-69
2022/10/06 06:43:46;;;;;;;;;;;;;;;22.46;52.92;102157.72;7402386;19;1525;-69
2022/10/06 06:46:16;;;;;;;;;;;;;;;22.45;53.07;102147.94;7399508;19;1549;-69
2022/10/06 06:48:47;;;;;;;;;;;;;;;22.44;53.25;102151.59;7401099;19;1569;-70
2022/10/06 06:51:15;;;;;;;;;;;;;;;22.50;52.84;102153.84;7401411;19;1347;-70
2022/10/06 06:53:44;;;;;;;;;;;;;;;22.44;53.27;102146.22;7402218;19;1871;-70
2022/10/06 06:56:12;;;;;;;;;;;;;;;22.43;53.09;102141.81;7401930;19;1405;-69
2022/10/06 06:58:40;;;;;;;;;;;;;;;22.46;52.85;102149.63;7402423;19;1435;-70
2022/10/06 07:01:12;;;;;;;;;;;;;;;22.44;52.90;102152.47;7401893;19;1619;-70
2022/10/06 07:03:41;;;;;;;;;;;;;;;22.41;52.75;102143.78;7401782;19;1487;-71
2022/10/06 07:06:15;;;;;;;;;;;;;;;22.45;52.68;102139.84;7401057;19;1558;-70
2022/10/06 07:08:44;;;;;;;;;;;;;;;22.47;52.83;102134.34;7399698;19;1568;-70
2022/10/06 07:11:13;;;;;;;;;;;;;;;22.50;52.49;102137.66;7402094;19;1536;-69
2022/10/06 07:13:42;;;;;;;;;;;;;;;22.51;52.37;102146.59;7402350;19;1611;-70
2022/10/06 07:26:57;;;;;;;;;;;;;;;22.55;52.09;102138.13;7403325;19;988;-69
2022/10/06 07:29:26;;;;;;;;;;;;;;;22.56;52.29;102136.28;7400792;19;1769;-69
2022/10/06 07:31:55;;;;;;;;;;;;;;;22.56;52.45;102128.19;7399971;19;1659;-69
2022/10/06 07:34:23;;;;;;;;;;;;;;;22.52;51.59;102122.22;7398916;19;1842;-69
2022/10/06 07:36:54;;;;;;;;;;;;;;;22.46;51.00;102127.22;7399143;19;1313;-69
2022/10/06 07:39:22;;;;;;;;;;;;;;;22.39;51.57;102138.50;7400007;19;1500;-68
2022/10/06 07:41:50;;;;;;;;;;;;;;;22.49;51.48;102133.22;7400874;19;1435;-70
2022/10/06 07:44:19;;;;;;;;;;;;;;;22.41;51.27;102136.53;7399740;19;1647;-70
2022/10/06 07:46:47;;;;;;;;;;;;;;;22.49;50.91;102132.38;7401101;19;1769;-70
2022/10/06 07:49:16;;;;;;;;;;;;;;;22.50;51.23;102129.56;7407654;19;1525;-70
2022/10/06 07:51:44;;;;;;;;;;;;;;;22.56;51.21;102128.19;7408299;19;1615;-70
2022/10/06 07:54:15;;;;;;;;;;;;;;;22.59;51.01;102122.56;7405071;19;1838;-70
2022/10/06 07:56:44;;;;;;;;;;;;;;;22.62;51.36;102131.25;7408757;19;1619;-70
2022/10/06 07:59:12;;;;;;;;;;;;;;;22.63;51.63;102113.22;7408979;19;1529;-70
2022/10/06 08:01:43;;;;;;;;;;;;;;;22.63;52.09;102119.47;7403510;19;1639;-72
2022/10/06 08:06:32;;;;;;;;;;;;;;;22.75;52.56;102122.13;7434465;19;1637;-42
2022/10/06 08:09:21;;;;;;;;;;;;;;;22.71;52.88;102115.28;7434036;19;1511;-42
2022/10/06 08:11:51;;;;;;;;;;;;;;;22.70;52.63;102110.88;7434931;19;1608;-43
2022/10/06 08:14:21;;;;;;;;;;;;;;;22.70;52.84;102118.94;7436792;19;1606;-42
2022/10/06 08:16:53;;;;;;;;;;;;;;;22.71;53.05;102115.28;7434737;19;1846;-41
2022/10/06 08:19:22;;;;;;;;;;;;;;;22.76;52.85;102118.44;7432807;19;1714;-42
2022/10/06 08:22:09;;;;;;;;;;;;;;;22.66;53.25;102125.59;7435189;19;1465;-43
2022/10/06 08:24:39;;;;;;;;;;;;;;;22.70;52.50;102124.34;7434509;19;1851;-45
2022/10/06 08:27:16;;;;;;;;;;;;;;;22.72;52.85;102111.59;7436255;19;1612;-42
2022/10/06 08:29:47;;;;;;;;;;;;;;;22.76;52.86;102118.44;7434377;19;1709;-42
2022/10/06 08:32:22;;;;;;;;;;;;;;;22.79;53.04;102112.81;7434194;19;1393;-42
2022/10/06 08:34:54;;;;;;;;;;;;;;;22.82;53.29;102112.56;7433510;19;1448;-42
2022/10/06 08:37:23;;;;;;;;;;;;;;;22.82;53.38;102112.56;7434600;19;1655;-42
2022/10/06 08:39:56;;;;;;;;;;;;;;;22.83;53.50;102114.25;7434724;19;1807;-43
2022/10/06 08:42:27;;;;;;;;;;;;;;;22.80;53.66;102118.06;7435138;19;1897;-42
2022/10/06 08:45:07;;;;;;;;;;;;;;;22.80;54.06;102114.50;7433468;19;1864;-42
2022/10/06 08:47:42;;;;;;;;;;;;;;;22.85;53.70;102115.00;7434390;19;1916;-42
2022/10/06 08:50:13;;;;;;;;;;;;;;;22.84;54.23;102113.28;7434712;19;1760;-42
2022/10/06 08:52:46;;;;;;;;;;;;;;;22.79;54.41;102097.47;7434959;19;1822;-42
2022/10/06 08:55:29;;;;;;;;;;;;;;;22.82;54.08;102113.41;7433287;19;1623;-42
2022/10/06 08:58:09;;;;;;;;;;;;;;;22.82;54.30;102096.38;7434345;19;1471;-42
2022/10/06 09:00:38;;;;;;;;;;;;;;;22.83;54.18;102100.78;7432639;19;1543;-42
2022/10/06 09:03:07;;;;;;;;;;;;;;;22.81;54.25;102111.69;7433085;19;1630;-43
2022/10/06 09:05:36;;;;;;;;;;;;;;;22.79;54.33;102096.63;7428710;19;1844;-42
2022/10/06 09:08:23;;;;;;;;;;;;;;;22.81;54.49;102102.75;7433972;19;1950;-42
2022/10/06 09:11:10;;;;;;;;;;;;;;;22.84;54.34;102111.44;7432605;19;1760;-42
2022/10/06 09:13:46;;;;;;;;;;;;;;;22.83;54.34;102103.47;7433627;19;1593;-42
2022/10/06 09:16:18;;;;;;;;;;;;;;;22.79;54.40;102096.63;7423480;19;1898;-43
2022/10/06 09:18:54;;;;;;;;;;;;;;;22.76;54.32;102095.06;7404271;19;1744;-42
2022/10/06 09:21:31;;;;;;;;;;;;;;;22.68;55.01;102088.56;7404068;19;1571;-42
2022/10/06 09:24:02;;;;;;;;;;;;;;;22.65;55.29;102089.69;7404091;19;1604;-42
2022/10/06 09:26:34;;;;;;;;;;;;;;;22.77;54.21;102098.59;7403331;19;1856;-42
2022/10/06 09:29:06;;;;;;;;;;;;;;;22.80;54.41;102095.63;7404356;19;1924;-43
2022/10/06 09:31:41;;;;;;;;;;;;;;;22.80;54.28;102092.94;7404054;19;1730;-42
2022/10/06 09:34:19;;;;;;;;;;;;;;;22.81;54.27;102086.56;7336547;19;14161;-42
2022/10/06 09:37:01;;;;;;;;;;;;;;;22.81;54.29;102086.56;7403774;19;1848;-42
2022/10/06 09:39:38;;;;;;;;;;;;;;;22.78;54.34;102081.41;7403207;19;1913;-43
2022/10/06 09:42:09;;;;;;;;;;;;;;;22.79;53.64;102083.13;7402895;19;1652;-42
2022/10/06 09:44:49;;;;;;;;;;;;;;;22.82;53.58;102096.38;7403958;19;1836;-42
2022/10/06 09:47:33;;;;;;;;;;;;;;;22.75;54.43;102070.91;7403771;19;1618;-42
2022/10/06 09:50:20;;;;;;;;;;;;;;;22.76;54.65;102080.69;7404512;19;1848;-42
2022/10/06 09:53:06;;;;;;;;;;;;;;;22.74;54.61;102064.66;7401818;19;1828;-42
2022/10/06 09:55:42;;;;;;;;;;;;;;;22.75;53.47;102077.16;7403888;19;1817;-42
2022/10/06 09:58:20;;;;;;;;;;;;;;;22.75;54.18;102069.06;7402933;19;1538;-43
2022/10/06 10:00:58;;;;;;;;;;;;;;;22.88;53.77;102074.28;7403865;19;1892;-42
2022/10/06 10:03:30;;;;;;;;;;;;;;;22.76;53.47;102070.78;7401677;19;2017;-42
2022/10/06 10:06:03;;;;;;;;;;;;;;;22.86;52.87;102051.09;7401063;19;1881;-42
2022/10/06 10:08:41;;;;;;;;;;;;;;;22.91;52.78;102063.22;7402640;19;1502;-41
2022/10/06 10:12:23;;;;;;;;;;;;;;;22.95;53.42;102059.28;7401182;19;1472;-43
2022/10/06 10:14:02;;;;;;;;;;;;;;;22.99;53.13;102063.41;7403267;19;1696;-41
2022/10/06 10:16:43;;;;;;;;;;;;;;;22.97;53.79;102059.16;7401248;19;1794;-43
2022/10/06 10:19:24;;;;;;;;;;;;;;;22.84;53.46;102056.66;7403128;19;1930;-43
2022/10/06 10:22:15;;;;;;;;;;;;;;;22.76;54.69;102057.28;7402288;19;1824;-43
2022/10/06 10:24:50;;;;;;;;;;;;;;;22.69;54.96;102052.53;7402092;19;1637;-43
2022/10/06 10:27:24;;;;;;;;;;;;;;;22.83;53.94;102049.53;7402462;19;1482;-43
2022/10/06 10:30:01;;;;;;;;;;;;;;;22.78;53.77;102041.84;7401199;19;1961;-44
2022/10/06 10:32:47;;;;;;;;;;;;;;;22.83;53.50;102041.44;7402064;19;1815;-43
2022/10/06 10:35:22;;;;;;;;;;;;;;;22.84;53.27;102037.78;7402906;19;2855;-44
2022/10/06 10:37:52;;;;;;;;;;;;;;;22.80;53.50;102030.91;7403820;19;1910;-43
2022/10/06 10:40:46;;;;;;;;;;;;;;;22.84;53.15;102035.94;7402449;19;1784;-43
2022/10/06 10:43:23;;;;;;;;;;;;;;;22.73;53.68;102027.88;7402906;19;1758;-43
2022/10/06 10:45:55;;;;;;;;;;;;;;;22.61;54.44;102018.13;7399315;19;1867;-44
2022/10/06 10:48:30;;;;;;;;;;;;;;;22.57;54.40;102017.53;7401282;19;1896;-43
2022/10/06 10:51:22;;;;;;;;;;;;;;;;;;;;;
2022/10/06 10:54:02;;;;;;;;;;;;;;;22.61;54.18;102013.59;7401079;19;1829;-45
2022/10/06 10:56:47;;;;;;;;;;;;;;;22.60;53.98;101992.13;7403696;19;1601;-42
2022/10/06 10:59:21;;;;;;;;;;;;;;;22.61;53.82;101996.56;7403113;19;1474;-45
2022/10/06 11:02:00;;;;;;;;;;;;;;;22.59;54.25;101994.00;7402687;19;1905;-44
2022/10/06 11:04:33;;;;;;;;;;;;;;;22.58;54.32;102008.47;7403243;19;1854;-44
2022/10/06 11:07:14;;;;;;;;;;;;;;;22.56;54.30;101994.25;7398584;19;1842;-44
2022/10/06 11:09:49;;;;;;;;;;;;;;;22.57;54.37;101990.56;7402303;19;1778;-44
2022/10/06 11:12:28;;;;;;;;;;;;;;;22.55;54.25;101997.94;7402241;19;1997;-44
2022/10/06 11:15:03;;;;;;;;;;;;;;;22.55;54.11;101987.16;7401954;19;1856;-44
2022/10/06 11:17:43;;;;;;;;;;;;;;;22.51;54.25;101980.31;7401977;19;1476;-44
2022/10/06 11:20:19;;;;;;;;;;;;;;;22.51;54.64;101982.16;7400073;19;1928;-44
2022/10/06 11:23:05;;;;;;;;;;;;;;;22.48;54.35;101979.69;7401932;19;1891;-44
2022/10/06 11:25:39;;;;;;;;;;;;;;;22.48;55.09;101974.31;7398969;19;1859;-44
2022/10/06 11:28:19;;;;;;;;;;;;;;;22.57;54.17;101982.47;7400292;19;1816;-44
2022/10/06 11:30:58;;;;;;;;;;;;;;;22.61;53.99;101975.00;7401108;19;1644;-44
2022/10/06 11:33:35;;;;;;;;;;;;;;;22.54;54.33;101982.75;7401237;19;1755;-44
2022/10/06 11:36:05;;;;;;;;;;;;;;;22.67;54.29;101971.78;7399115;19;1516;-44
2022/10/06 11:38:44;;;;;;;;;;;;;;;22.76;54.54;101967.41;7402531;19;1613;-44
2022/10/06 11:41:36;;;;;;;;;;;;;;;22.75;56.78;101976.50;7398652;19;1901;-44
2022/10/06 11:44:08;;;;;;;;;;;;;;;22.72;58.06;101971.38;7399013;19;1713;-44
2022/10/06 11:46:44;;;;;;;;;;;;;;;22.78;56.41;101976.22;7397601;19;1910;-44
2022/10/06 11:49:27;;;;;;;;;;;;;;;22.87;56.37;101964.66;7401834;19;1674;-44
2022/10/06 11:52:05;;;;;;;;;;;;;;;22.90;56.56;101960.84;7399423;19;1926;-41
2022/10/06 11:54:47;;;;;;;;;;;;;;;22.96;56.90;101961.19;7394346;19;1633;-45
2022/10/06 11:57:32;;;;;;;;;;;;;;;22.90;57.05;101958.16;7401051;19;1491;-46
2022/10/06 12:03:23;;;;;;;;;;;;;;;22.57;52.14;101957.38;7396797;19;1620;-46
2022/10/06 12:05:58;;;;;;;;;;;;;;;22.51;49.02;101953.34;7396494;19;1853;-46
2022/10/06 12:08:37;;;;;;;;;;;;;;;22.50;49.14;101946.25;7399155;19;1532;-45
2022/10/06 12:11:26;;;;;;;;;;;;;;;22.59;52.31;101936.53;7399761;19;1568;-42
2022/10/06 12:14:05;;;;;;;;;;;;;;;22.76;52.48;101937.75;7390771;19;2287;-44
2022/10/06 12:16:46;;;;;;;;;;;;;;;22.92;52.56;101935.47;7397507;19;1563;-43
2022/10/06 12:19:20;;;;;;;;;;;;;;;22.98;53.47;101916.06;7394514;19;1480;-43
2022/10/06 12:22:03;;;;;;;;;;;;;;;22.93;53.67;101920.97;7397571;19;1585;-43
2022/10/06 12:24:41;;;;;;;;;;;;;;;22.94;54.91;101922.69;7394791;19;1559;-44
2022/10/06 12:27:28;;;;;;;;;;;;;;;22.98;54.87;101923.28;7396599;19;1853;-45
2022/10/06 12:30:00;;;;;;;;;;;;;;;22.82;54.91;101913.84;7396494;19;1455;-43
2022/10/06 12:32:43;;;;;;;;;;;;;;;22.81;55.05;101913.97;7398348;19;1487;-44
2022/10/06 12:35:30;;;;;;;;;;;;;;;22.86;56.84;101922.53;7397533;19;1512;-43
2022/10/06 12:38:03;;;;;;;;;;;;;;;22.89;55.25;101911.44;7397168;19;1871;-43
2022/10/06 12:40:56;;;;;;;;;;;;;;;23.03;55.89;101921.91;7398167;19;1471;-43
2022/10/06 12:43:43;;;;;;;;;;;;;;;23.06;55.72;101914.53;7395006;19;1640;-43
2022/10/06 12:46:22;;;;;;;;;;;;;;;23.18;56.29;101908.94;7393691;19;1864;-43
2022/10/06 12:49:08;;;;;;;;;;;;;;;23.19;56.55;101904.38;7397747;19;1643;-43
2022/10/06 12:51:40;;;;;;;;;;;;;;;23.10;56.27;101899.78;7397839;19;1968;-43
2022/10/06 12:54:20;;;;;;;;;;;;;;;23.10;56.24;101903.38;7403413;19;1788;-43
2022/10/06 12:56:58;;;;;;;;;;;;;;;23.14;57.25;101907.50;7405573;19;1784;-42
2022/10/06 12:59:30;;;;;;;;;;;;;;;23.19;57.39;101899.84;7402710;19;1975;-42
2022/10/06 13:02:11;;;;;;;;;;;;;;;23.12;57.34;101901.38;7403470;19;1777;-44
2022/10/06 13:04:49;;;;;;;;;;;;;;;23.10;57.15;101900.66;7403600;19;1710;-43
2022/10/06 13:07:25;;;;;;;;;;;;;;;23.03;58.43;101894.94;7402011;19;1858;-43
2022/10/06 13:09:54;;;;;;;;;;;;;;;23.00;58.32;101900.59;7404138;19;1719;-43
2022/10/06 13:12:51;;;;;;;;;;;;;;;23.05;58.68;101883.16;7405400;19;1615;-43
2022/10/06 13:15:26;;;;;;;;;;;;;;;23.09;58.69;101893.53;7404151;19;1490;-42
2022/10/06 13:18:08;;;;;;;;;;;;;;;23.09;59.04;101898.09;7402352;19;1363;-43
2022/10/06 13:20:41;;;;;;;;;;;;;;;23.09;58.86;101906.19;7402615;19;1502;-43
2022/10/06 13:23:32;;;;;;;;;;;;;;;23.10;58.94;101889.00;7402549;19;1473;-44
2022/10/06 13:26:03;;;;;;;;;;;;;;;23.08;59.71;101880.19;7403615;19;1885;-44
2022/10/06 13:28:46;;;;;;;;;;;;;;;23.10;59.98;101889.88;7402387;19;1802;-43
2022/10/06 13:31:21;;;;;;;;;;;;;;;23.11;59.86;101890.72;7402125;19;1615;-43
2022/10/06 13:34:01;;;;;;;;;;;;;;;23.11;59.76;101896.13;7403777;19;1299;-44